sensor_id;sensor_type;location;lat;lon;timestamp;P1;durP1;ratioP1;P2;durP2;ratioP2
73919;SDS011;62266;53.348;-1.496;2022-07-23T00:00:31;2.80;;;2.00;;
73919;SDS011;62266;53.348;-1.496;2022-07-23T00:02:57;3.80;;;1.97;;
73919;SDS011;62266;53.348;-1.496;2022-07-23T00:05:22;4.10;;;2.22;;
73919;SDS011;62266;53.348;-1.496;2022-07-23T00:07:48;4.57;;;2.50;;
73919;SDS011;62266;53.348;-1.496;2022-07-23T00:10:14;4.18;;;2.40;;
73919;SDS011;62266;53.348;-1.496;2022-07-23T00:12:40;3.88;;;2.35;;
73919;SDS011;62266;53.348;-1.496;2022-07-23T00:15:06;3.80;;;2.88;;
73919;SDS011;62266;53.348;-1.496;2022-07-23T00:17:32;3.37;;;2.40;;
73919;SDS011;62266;53.348;-1.496;2022-07-23T00:20:01;3.97;;;1.92;;
73919;SDS011;62266;53.348;-1.496;2022-07-23T00:22:27;3.13;;;1.88;;
73919;SDS011;62266;53.348;-1.496;2022-07-23T00:24:54;2.80;;;2.10;;
73919;SDS011;62266;53.348;-1.496;2022-07-23T00:27:20;7.25;;;2.17;;
73919;SDS011;62266;53.348;-1.496;2022-07-23T00:29:46;4.57;;;2.20;;
73919;SDS011;62266;53.348;-1.496;2022-07-23T00:32:12;3.28;;;1.90;;
73919;SDS011;62266;53.348;-1.496;2022-07-23T00:34:37;4.23;;;2.10;;
73919;SDS011;62266;53.348;-1.496;2022-07-23T00:37:03;2.30;;;1.90;;
73919;SDS011;62266;53.348;-1.496;2022-07-23T00:39:28;2.50;;;2.08;;
73919;SDS011;62266;53.348;-1.496;2022-07-23T00:41:54;5.83;;;2.10;;
73919;SDS011;62266;53.348;-1.496;2022-07-23T00:44:28;2.60;;;2.00;;
73919;SDS011;62266;53.348;-1.496;2022-07-23T00:46:55;3.73;;;2.23;;
73919;SDS011;62266;53.348;-1.496;2022-07-23T00:49:23;4.05;;;2.50;;
73919;SDS011;62266;53.348;-1.496;2022-07-23T00:51:51;3.05;;;2.22;;
73919;SDS011;62266;53.348;-1.496;2022-07-23T00:54:17;3.75;;;2.30;;
73919;SDS011;62266;53.348;-1.496;2022-07-23T00:56:44;5.65;;;2.33;;
73919;SDS011;62266;53.348;-1.496;2022-07-23T00:59:10;2.97;;;1.93;;
73919;SDS011;62266;53.348;-1.496;2022-07-23T01:01:36;5.18;;;2.58;;
73919;SDS011;62266;53.348;-1.496;2022-07-23T01:04:02;4.38;;;2.30;;
73919;SDS011;62266;53.348;-1.496;2022-07-23T01:06:28;4.57;;;2.50;;
73919;SDS011;62266;53.348;-1.496;2022-07-23T01:08:54;4.00;;;2.72;;
73919;SDS011;62266;53.348;-1.496;2022-07-23T01:11:21;4.28;;;2.47;;
73919;SDS011;62266;53.348;-1.496;2022-07-23T01:13:48;3.08;;;2.30;;
73919;SDS011;62266;53.348;-1.496;2022-07-23T01:16:15;4.40;;;2.72;;
73919;SDS011;62266;53.348;-1.496;2022-07-23T01:18:40;5.03;;;2.73;;
73919;SDS011;62266;53.348;-1.496;2022-07-23T01:21:06;3.73;;;2.47;;
73919;SDS011;62266;53.348;-1.496;2022-07-23T01:23:31;4.05;;;2.53;;
73919;SDS011;62266;53.348;-1.496;2022-07-23T01:25:57;3.60;;;2.47;;
73919;SDS011;62266;53.348;-1.496;2022-07-23T01:28:22;5.50;;;2.83;;
73919;SDS011;62266;53.348;-1.496;2022-07-23T01:30:48;4.63;;;2.60;;
73919;SDS011;62266;53.348;-1.496;2022-07-23T01:33:14;3.65;;;2.70;;
73919;SDS011;62266;53.348;-1.496;2022-07-23T01:35:40;3.15;;;2.47;;
73919;SDS011;62266;53.348;-1.496;2022-07-23T01:38:06;3.63;;;2.53;;
73919;SDS011;62266;53.348;-1.496;2022-07-23T01:40:31;3.33;;;2.60;;
73919;SDS011;62266;53.348;-1.496;2022-07-23T01:42:57;4.43;;;2.92;;
73919;SDS011;62266;53.348;-1.496;2022-07-23T01:45:22;5.57;;;2.63;;
73919;SDS011;62266;53.348;-1.496;2022-07-23T01:47:48;5.07;;;2.30;;
73919;SDS011;62266;53.348;-1.496;2022-07-23T01:50:13;5.38;;;2.88;;
73919;SDS011;62266;53.348;-1.496;2022-07-23T01:52:39;2.67;;;2.37;;
73919;SDS011;62266;53.348;-1.496;2022-07-23T01:55:05;3.65;;;2.92;;
73919;SDS011;62266;53.348;-1.496;2022-07-23T01:57:31;5.53;;;2.77;;
73919;SDS011;62266;53.348;-1.496;2022-07-23T01:59:57;3.65;;;3.03;;
73919;SDS011;62266;53.348;-1.496;2022-07-23T02:02:23;5.07;;;2.80;;
73919;SDS011;62266;53.348;-1.496;2022-07-23T02:04:49;3.57;;;2.60;;
73919;SDS011;62266;53.348;-1.496;2022-07-23T02:07:16;3.55;;;2.08;;
73919;SDS011;62266;53.348;-1.496;2022-07-23T02:09:41;4.88;;;2.60;;
73919;SDS011;62266;53.348;-1.496;2022-07-23T02:12:07;4.07;;;2.63;;
73919;SDS011;62266;53.348;-1.496;2022-07-23T02:14:33;4.05;;;2.70;;
73919;SDS011;62266;53.348;-1.496;2022-07-23T02:16:58;4.57;;;2.90;;
73919;SDS011;62266;53.348;-1.496;2022-07-23T02:19:24;2.80;;;2.53;;
73919;SDS011;62266;53.348;-1.496;2022-07-23T02:21:50;3.83;;;2.47;;
73919;SDS011;62266;53.348;-1.496;2022-07-23T02:24:16;3.20;;;2.33;;
73919;SDS011;62266;53.348;-1.496;2022-07-23T02:26:41;5.33;;;3.17;;
73919;SDS011;62266;53.348;-1.496;2022-07-23T02:29:07;4.30;;;2.60;;
73919;SDS011;62266;53.348;-1.496;2022-07-23T02:31:33;3.35;;;2.42;;
73919;SDS011;62266;53.348;-1.496;2022-07-23T02:33:59;3.67;;;2.63;;
73919;SDS011;62266;53.348;-1.496;2022-07-23T02:36:24;2.80;;;2.25;;
73919;SDS011;62266;53.348;-1.496;2022-07-23T02:38:50;5.10;;;2.63;;
73919;SDS011;62266;53.348;-1.496;2022-07-23T02:41:15;3.80;;;2.60;;
73919;SDS011;62266;53.348;-1.496;2022-07-23T02:43:41;2.93;;;2.40;;
73919;SDS011;62266;53.348;-1.496;2022-07-23T02:46:07;5.57;;;2.53;;
73919;SDS011;62266;53.348;-1.496;2022-07-23T02:48:33;3.03;;;2.43;;
73919;SDS011;62266;53.348;-1.496;2022-07-23T02:50:58;4.05;;;2.72;;
73919;SDS011;62266;53.348;-1.496;2022-07-23T02:53:24;3.70;;;3.00;;
73919;SDS011;62266;53.348;-1.496;2022-07-23T02:55:49;3.83;;;3.23;;
73919;SDS011;62266;53.348;-1.496;2022-07-23T02:58:15;4.07;;;2.40;;
73919;SDS011;62266;53.348;-1.496;2022-07-23T03:00:41;3.47;;;2.73;;
73919;SDS011;62266;53.348;-1.496;2022-07-23T03:03:06;3.22;;;2.70;;
73919;SDS011;62266;53.348;-1.496;2022-07-23T03:05:32;4.63;;;3.08;;
73919;SDS011;62266;53.348;-1.496;2022-07-23T03:07:58;4.88;;;3.17;;
73919;SDS011;62266;53.348;-1.496;2022-07-23T03:10:24;4.53;;;3.33;;
73919;SDS011;62266;53.348;-1.496;2022-07-23T03:12:50;4.00;;;2.97;;
73919;SDS011;62266;53.348;-1.496;2022-07-23T03:15:16;3.83;;;2.83;;
73919;SDS011;62266;53.348;-1.496;2022-07-23T03:17:41;6.00;;;2.60;;
73919;SDS011;62266;53.348;-1.496;2022-07-23T03:20:07;4.82;;;2.80;;
73919;SDS011;62266;53.348;-1.496;2022-07-23T03:22:34;5.80;;;2.70;;
73919;SDS011;62266;53.348;-1.496;2022-07-23T03:25:00;5.60;;;2.97;;
73919;SDS011;62266;53.348;-1.496;2022-07-23T03:27:27;6.00;;;3.30;;
73919;SDS011;62266;53.348;-1.496;2022-07-23T03:29:54;6.15;;;3.10;;
73919;SDS011;62266;53.348;-1.496;2022-07-23T03:32:21;4.63;;;2.90;;
73919;SDS011;62266;53.348;-1.496;2022-07-23T03:34:47;4.38;;;3.60;;
73919;SDS011;62266;53.348;-1.496;2022-07-23T03:37:13;5.55;;;3.50;;
73919;SDS011;62266;53.348;-1.496;2022-07-23T03:39:39;6.60;;;2.93;;
73919;SDS011;62266;53.348;-1.496;2022-07-23T03:42:04;4.28;;;3.28;;
73919;SDS011;62266;53.348;-1.496;2022-07-23T03:44:30;3.88;;;2.97;;
73919;SDS011;62266;53.348;-1.496;2022-07-23T03:46:56;5.60;;;3.20;;
73919;SDS011;62266;53.348;-1.496;2022-07-23T03:49:22;4.90;;;3.35;;
73919;SDS011;62266;53.348;-1.496;2022-07-23T03:51:48;4.50;;;2.80;;
73919;SDS011;62266;53.348;-1.496;2022-07-23T03:54:14;5.63;;;3.13;;
73919;SDS011;62266;53.348;-1.496;2022-07-23T03:56:39;5.03;;;2.78;;
73919;SDS011;62266;53.348;-1.496;2022-07-23T03:59:05;6.23;;;3.20;;
73919;SDS011;62266;53.348;-1.496;2022-07-23T04:01:31;4.10;;;3.07;;
73919;SDS011;62266;53.348;-1.496;2022-07-23T04:03:56;6.23;;;3.40;;
73919;SDS011;62266;53.348;-1.496;2022-07-23T04:06:22;6.47;;;3.55;;
73919;SDS011;62266;53.348;-1.496;2022-07-23T04:08:47;7.17;;;3.30;;
73919;SDS011;62266;53.348;-1.496;2022-07-23T04:11:13;6.10;;;4.00;;
73919;SDS011;62266;53.348;-1.496;2022-07-23T04:13:38;5.88;;;3.88;;
73919;SDS011;62266;53.348;-1.496;2022-07-23T04:16:04;6.00;;;3.47;;
73919;SDS011;62266;53.348;-1.496;2022-07-23T04:18:30;4.20;;;3.60;;
73919;SDS011;62266;53.348;-1.496;2022-07-23T04:20:55;7.10;;;3.30;;
73919;SDS011;62266;53.348;-1.496;2022-07-23T04:23:21;8.30;;;4.07;;
73919;SDS011;62266;53.348;-1.496;2022-07-23T04:25:47;8.03;;;4.00;;
73919;SDS011;62266;53.348;-1.496;2022-07-23T04:28:12;8.07;;;3.85;;
73919;SDS011;62266;53.348;-1.496;2022-07-23T04:30:38;8.33;;;4.33;;
73919;SDS011;62266;53.348;-1.496;2022-07-23T04:33:03;7.33;;;4.27;;
73919;SDS011;62266;53.348;-1.496;2022-07-23T04:35:32;7.93;;;4.68;;
73919;SDS011;62266;53.348;-1.496;2022-07-23T04:37:59;5.43;;;4.10;;
73919;SDS011;62266;53.348;-1.496;2022-07-23T04:40:25;7.77;;;4.07;;
73919;SDS011;62266;53.348;-1.496;2022-07-23T04:42:51;7.47;;;4.03;;
73919;SDS011;62266;53.348;-1.496;2022-07-23T04:45:16;7.70;;;3.87;;
73919;SDS011;62266;53.348;-1.496;2022-07-23T04:47:42;4.97;;;3.90;;
73919;SDS011;62266;53.348;-1.496;2022-07-23T04:50:07;6.00;;;4.13;;
73919;SDS011;62266;53.348;-1.496;2022-07-23T04:52:33;5.28;;;3.55;;
73919;SDS011;62266;53.348;-1.496;2022-07-23T04:54:58;7.17;;;3.87;;
73919;SDS011;62266;53.348;-1.496;2022-07-23T04:57:24;7.27;;;3.07;;
73919;SDS011;62266;53.348;-1.496;2022-07-23T04:59:49;5.20;;;3.53;;
73919;SDS011;62266;53.348;-1.496;2022-07-23T05:02:15;5.13;;;3.10;;
73919;SDS011;62266;53.348;-1.496;2022-07-23T05:04:40;5.33;;;3.70;;
73919;SDS011;62266;53.348;-1.496;2022-07-23T05:07:06;6.65;;;4.30;;
73919;SDS011;62266;53.348;-1.496;2022-07-23T05:09:31;6.13;;;4.47;;
73919;SDS011;62266;53.348;-1.496;2022-07-23T05:11:57;8.70;;;4.85;;
73919;SDS011;62266;53.348;-1.496;2022-07-23T05:14:22;10.27;;;5.90;;
73919;SDS011;62266;53.348;-1.496;2022-07-23T05:16:49;12.68;;;6.95;;
73919;SDS011;62266;53.348;-1.496;2022-07-23T05:19:14;11.07;;;6.23;;
73919;SDS011;62266;53.348;-1.496;2022-07-23T05:21:39;10.50;;;6.20;;
73919;SDS011;62266;53.348;-1.496;2022-07-23T05:24:05;11.82;;;6.20;;
73919;SDS011;62266;53.348;-1.496;2022-07-23T05:26:31;10.67;;;5.87;;
73919;SDS011;62266;53.348;-1.496;2022-07-23T05:28:58;12.63;;;6.80;;
73919;SDS011;62266;53.348;-1.496;2022-07-23T05:31:24;16.65;;;7.28;;
73919;SDS011;62266;53.348;-1.496;2022-07-23T05:33:49;18.10;;;7.80;;
73919;SDS011;62266;53.348;-1.496;2022-07-23T05:36:15;12.43;;;7.23;;
73919;SDS011;62266;53.348;-1.496;2022-07-23T05:38:41;16.00;;;7.80;;
73919;SDS011;62266;53.348;-1.496;2022-07-23T05:41:06;15.98;;;8.60;;
73919;SDS011;62266;53.348;-1.496;2022-07-23T05:43:32;15.33;;;8.97;;
73919;SDS011;62266;53.348;-1.496;2022-07-23T05:45:57;15.63;;;7.83;;
73919;SDS011;62266;53.348;-1.496;2022-07-23T05:48:22;13.77;;;7.80;;
73919;SDS011;62266;53.348;-1.496;2022-07-23T05:50:48;14.57;;;7.23;;
73919;SDS011;62266;53.348;-1.496;2022-07-23T05:53:14;15.47;;;8.40;;
73919;SDS011;62266;53.348;-1.496;2022-07-23T05:55:40;14.55;;;8.25;;
73919;SDS011;62266;53.348;-1.496;2022-07-23T05:58:05;15.53;;;8.77;;
73919;SDS011;62266;53.348;-1.496;2022-07-23T06:00:31;15.07;;;8.23;;
73919;SDS011;62266;53.348;-1.496;2022-07-23T06:02:57;12.63;;;6.87;;
73919;SDS011;62266;53.348;-1.496;2022-07-23T06:05:23;13.38;;;7.43;;
73919;SDS011;62266;53.348;-1.496;2022-07-23T06:07:49;19.33;;;9.55;;
73919;SDS011;62266;53.348;-1.496;2022-07-23T06:10:14;19.10;;;9.87;;
73919;SDS011;62266;53.348;-1.496;2022-07-23T06:12:40;16.58;;;9.90;;
73919;SDS011;62266;53.348;-1.496;2022-07-23T06:15:07;19.07;;;9.53;;
73919;SDS011;62266;53.348;-1.496;2022-07-23T06:17:33;17.95;;;10.43;;
73919;SDS011;62266;53.348;-1.496;2022-07-23T06:20:00;17.15;;;9.40;;
73919;SDS011;62266;53.348;-1.496;2022-07-23T06:22:26;18.58;;;10.00;;
73919;SDS011;62266;53.348;-1.496;2022-07-23T06:24:52;24.83;;;13.57;;
73919;SDS011;62266;53.348;-1.496;2022-07-23T06:27:18;28.63;;;14.15;;
73919;SDS011;62266;53.348;-1.496;2022-07-23T06:29:44;24.58;;;13.35;;
73919;SDS011;62266;53.348;-1.496;2022-07-23T06:32:10;27.47;;;14.87;;
73919;SDS011;62266;53.348;-1.496;2022-07-23T06:34:35;31.48;;;15.55;;
73919;SDS011;62266;53.348;-1.496;2022-07-23T06:37:01;31.00;;;14.93;;
73919;SDS011;62266;53.348;-1.496;2022-07-23T06:39:26;32.07;;;15.30;;
73919;SDS011;62266;53.348;-1.496;2022-07-23T06:41:52;30.98;;;15.05;;
73919;SDS011;62266;53.348;-1.496;2022-07-23T06:44:18;34.07;;;15.90;;
73919;SDS011;62266;53.348;-1.496;2022-07-23T06:46:44;31.42;;;15.75;;
73919;SDS011;62266;53.348;-1.496;2022-07-23T06:49:10;29.07;;;15.10;;
73919;SDS011;62266;53.348;-1.496;2022-07-23T06:51:35;26.63;;;14.00;;
73919;SDS011;62266;53.348;-1.496;2022-07-23T06:54:01;28.00;;;13.50;;
73919;SDS011;62266;53.348;-1.496;2022-07-23T06:56:28;27.00;;;14.20;;
73919;SDS011;62266;53.348;-1.496;2022-07-23T06:58:54;28.40;;;14.05;;
73919;SDS011;62266;53.348;-1.496;2022-07-23T07:01:19;29.53;;;15.30;;
73919;SDS011;62266;53.348;-1.496;2022-07-23T07:03:45;26.00;;;14.07;;
73919;SDS011;62266;53.348;-1.496;2022-07-23T07:06:11;31.00;;;15.13;;
73919;SDS011;62266;53.348;-1.496;2022-07-23T07:08:37;25.90;;;14.63;;
73919;SDS011;62266;53.348;-1.496;2022-07-23T07:11:02;29.73;;;14.13;;
73919;SDS011;62266;53.348;-1.496;2022-07-23T07:13:28;24.45;;;13.85;;
73919;SDS011;62266;53.348;-1.496;2022-07-23T07:15:53;23.97;;;12.93;;
73919;SDS011;62266;53.348;-1.496;2022-07-23T07:18:19;26.80;;;13.73;;
73919;SDS011;62266;53.348;-1.496;2022-07-23T07:20:45;25.60;;;13.43;;
73919;SDS011;62266;53.348;-1.496;2022-07-23T07:23:11;24.37;;;13.20;;
73919;SDS011;62266;53.348;-1.496;2022-07-23T07:25:38;22.23;;;13.18;;
73919;SDS011;62266;53.348;-1.496;2022-07-23T07:28:03;23.55;;;13.50;;
73919;SDS011;62266;53.348;-1.496;2022-07-23T07:30:29;24.30;;;12.70;;
73919;SDS011;62266;53.348;-1.496;2022-07-23T07:32:54;22.83;;;12.17;;
73919;SDS011;62266;53.348;-1.496;2022-07-23T07:35:20;21.20;;;12.25;;
73919;SDS011;62266;53.348;-1.496;2022-07-23T07:37:45;21.03;;;12.60;;
73919;SDS011;62266;53.348;-1.496;2022-07-23T07:40:11;21.40;;;12.60;;
73919;SDS011;62266;53.348;-1.496;2022-07-23T07:42:46;27.20;;;13.38;;
73919;SDS011;62266;53.348;-1.496;2022-07-23T07:45:16;21.15;;;11.88;;
73919;SDS011;62266;53.348;-1.496;2022-07-23T07:47:42;19.77;;;12.20;;
73919;SDS011;62266;53.348;-1.496;2022-07-23T07:50:08;19.00;;;11.50;;
73919;SDS011;62266;53.348;-1.496;2022-07-23T07:52:36;20.58;;;13.05;;
73919;SDS011;62266;53.348;-1.496;2022-07-23T07:55:03;19.23;;;11.63;;
73919;SDS011;62266;53.348;-1.496;2022-07-23T07:57:29;17.80;;;11.70;;
73919;SDS011;62266;53.348;-1.496;2022-07-23T07:59:55;19.40;;;11.43;;
73919;SDS011;62266;53.348;-1.496;2022-07-23T08:02:21;18.05;;;11.77;;
73919;SDS011;62266;53.348;-1.496;2022-07-23T08:04:46;17.77;;;10.23;;
73919;SDS011;62266;53.348;-1.496;2022-07-23T08:07:14;18.42;;;10.93;;
73919;SDS011;62266;53.348;-1.496;2022-07-23T08:09:39;14.52;;;9.93;;
73919;SDS011;62266;53.348;-1.496;2022-07-23T08:12:05;16.60;;;10.30;;
73919;SDS011;62266;53.348;-1.496;2022-07-23T08:14:30;15.63;;;10.18;;
73919;SDS011;62266;53.348;-1.496;2022-07-23T08:16:56;17.23;;;10.97;;
73919;SDS011;62266;53.348;-1.496;2022-07-23T08:19:21;17.87;;;10.30;;
73919;SDS011;62266;53.348;-1.496;2022-07-23T08:21:48;15.38;;;9.20;;
73919;SDS011;62266;53.348;-1.496;2022-07-23T08:24:13;12.27;;;8.40;;
73919;SDS011;62266;53.348;-1.496;2022-07-23T08:26:39;15.73;;;8.73;;
73919;SDS011;62266;53.348;-1.496;2022-07-23T08:29:04;17.97;;;8.87;;
73919;SDS011;62266;53.348;-1.496;2022-07-23T08:31:33;13.50;;;8.75;;
73919;SDS011;62266;53.348;-1.496;2022-07-23T08:34:06;13.98;;;7.72;;
73919;SDS011;62266;53.348;-1.496;2022-07-23T08:36:32;12.63;;;9.20;;
73919;SDS011;62266;53.348;-1.496;2022-07-23T08:38:58;14.07;;;9.37;;
73919;SDS011;62266;53.348;-1.496;2022-07-23T08:41:24;14.70;;;9.77;;
73919;SDS011;62266;53.348;-1.496;2022-07-23T08:43:50;15.57;;;7.93;;
73919;SDS011;62266;53.348;-1.496;2022-07-23T08:46:16;11.85;;;8.30;;
73919;SDS011;62266;53.348;-1.496;2022-07-23T08:48:44;19.80;;;9.37;;
73919;SDS011;62266;53.348;-1.496;2022-07-23T08:51:12;15.40;;;8.68;;
73919;SDS011;62266;53.348;-1.496;2022-07-23T08:53:38;18.25;;;9.93;;
73919;SDS011;62266;53.348;-1.496;2022-07-23T08:56:06;11.90;;;8.40;;
73919;SDS011;62266;53.348;-1.496;2022-07-23T08:58:31;15.37;;;10.07;;
73919;SDS011;62266;53.348;-1.496;2022-07-23T09:01:10;15.30;;;9.50;;
73919;SDS011;62266;53.348;-1.496;2022-07-23T09:03:36;14.45;;;8.80;;
73919;SDS011;62266;53.348;-1.496;2022-07-23T09:06:09;14.93;;;8.95;;
73919;SDS011;62266;53.348;-1.496;2022-07-23T09:08:36;14.40;;;8.50;;
73919;SDS011;62266;53.348;-1.496;2022-07-23T09:11:08;14.25;;;9.77;;
73919;SDS011;62266;53.348;-1.496;2022-07-23T09:16:18;14.23;;;9.13;;
73919;SDS011;62266;53.348;-1.496;2022-07-23T09:21:38;14.68;;;8.27;;
73919;SDS011;62266;53.348;-1.496;2022-07-23T09:24:05;10.45;;;7.05;;
73919;SDS011;62266;53.348;-1.496;2022-07-23T09:29:12;10.70;;;6.75;;
73919;SDS011;62266;53.348;-1.496;2022-07-23T09:31:45;11.17;;;7.77;;
73919;SDS011;62266;53.348;-1.496;2022-07-23T09:34:13;9.27;;;6.82;;
73919;SDS011;62266;53.348;-1.496;2022-07-23T09:36:43;11.10;;;6.90;;
73919;SDS011;62266;53.348;-1.496;2022-07-23T09:39:10;11.27;;;6.82;;
73919;SDS011;62266;53.348;-1.496;2022-07-23T09:41:43;8.95;;;6.50;;
73919;SDS011;62266;53.348;-1.496;2022-07-23T09:44:11;9.47;;;6.70;;
73919;SDS011;62266;53.348;-1.496;2022-07-23T09:46:41;10.85;;;7.90;;
73919;SDS011;62266;53.348;-1.496;2022-07-23T09:49:12;20.50;;;13.18;;
73919;SDS011;62266;53.348;-1.496;2022-07-23T09:51:46;20.85;;;13.02;;
73919;SDS011;62266;53.348;-1.496;2022-07-23T09:54:30;12.25;;;7.80;;
73919;SDS011;62266;53.348;-1.496;2022-07-23T09:57:09;8.37;;;6.33;;
73919;SDS011;62266;53.348;-1.496;2022-07-23T09:59:43;26.02;;;15.38;;
73919;SDS011;62266;53.348;-1.496;2022-07-23T10:02:10;25.95;;;14.60;;
73919;SDS011;62266;53.348;-1.496;2022-07-23T10:04:37;21.05;;;12.10;;
73919;SDS011;62266;53.348;-1.496;2022-07-23T10:07:05;17.58;;;10.48;;
73919;SDS011;62266;53.348;-1.496;2022-07-23T10:09:34;15.87;;;10.40;;
73919;SDS011;62266;53.348;-1.496;2022-07-23T10:12:05;11.60;;;7.15;;
73919;SDS011;62266;53.348;-1.496;2022-07-23T10:14:40;9.77;;;7.50;;
73919;SDS011;62266;53.348;-1.496;2022-07-23T10:17:07;10.57;;;7.22;;
73919;SDS011;62266;53.348;-1.496;2022-07-23T10:19:33;12.68;;;7.47;;
73919;SDS011;62266;53.348;-1.496;2022-07-23T10:22:42;12.83;;;7.47;;
73919;SDS011;62266;53.348;-1.496;2022-07-23T10:30:34;12.88;;;8.80;;
73919;SDS011;62266;53.348;-1.496;2022-07-23T10:38:31;12.65;;;7.30;;
73919;SDS011;62266;53.348;-1.496;2022-07-23T10:41:30;10.25;;;7.43;;
73919;SDS011;62266;53.348;-1.496;2022-07-23T10:44:05;11.95;;;7.75;;
73919;SDS011;62266;53.348;-1.496;2022-07-23T10:49:35;11.70;;;7.47;;
73919;SDS011;62266;53.348;-1.496;2022-07-23T10:54:42;11.63;;;7.45;;
73919;SDS011;62266;53.348;-1.496;2022-07-23T10:57:12;10.23;;;7.43;;
73919;SDS011;62266;53.348;-1.496;2022-07-23T11:02:37;11.70;;;7.15;;
73919;SDS011;62266;53.348;-1.496;2022-07-23T11:05:04;8.35;;;6.65;;
73919;SDS011;62266;53.348;-1.496;2022-07-23T11:07:31;7.72;;;6.35;;
73919;SDS011;62266;53.348;-1.496;2022-07-23T11:09:57;6.80;;;5.37;;
73919;SDS011;62266;53.348;-1.496;2022-07-23T11:14:57;7.05;;;5.10;;
73919;SDS011;62266;53.348;-1.496;2022-07-23T11:17:26;8.10;;;5.43;;
73919;SDS011;62266;53.348;-1.496;2022-07-23T11:22:38;9.80;;;6.60;;
73919;SDS011;62266;53.348;-1.496;2022-07-23T11:25:05;10.73;;;6.85;;
73919;SDS011;62266;53.348;-1.496;2022-07-23T11:27:38;15.23;;;8.23;;
73919;SDS011;62266;53.348;-1.496;2022-07-23T11:30:05;14.13;;;8.20;;
73919;SDS011;62266;53.348;-1.496;2022-07-23T11:32:36;12.35;;;7.20;;
73919;SDS011;62266;53.348;-1.496;2022-07-23T11:35:22;9.35;;;5.20;;
73919;SDS011;62266;53.348;-1.496;2022-07-23T11:37:53;7.50;;;4.80;;
73919;SDS011;62266;53.348;-1.496;2022-07-23T11:40:24;7.32;;;4.80;;
73919;SDS011;62266;53.348;-1.496;2022-07-23T11:45:23;8.20;;;5.78;;
73919;SDS011;62266;53.348;-1.496;2022-07-23T11:47:51;6.20;;;4.50;;
73919;SDS011;62266;53.348;-1.496;2022-07-23T11:50:17;9.27;;;4.20;;
73919;SDS011;62266;53.348;-1.496;2022-07-23T11:52:43;5.57;;;3.88;;
73919;SDS011;62266;53.348;-1.496;2022-07-23T11:55:09;5.80;;;3.53;;
73919;SDS011;62266;53.348;-1.496;2022-07-23T11:57:37;6.38;;;3.78;;
73919;SDS011;62266;53.348;-1.496;2022-07-23T12:00:06;8.00;;;4.05;;
73919;SDS011;62266;53.348;-1.496;2022-07-23T12:02:36;6.50;;;3.85;;
73919;SDS011;62266;53.348;-1.496;2022-07-23T12:05:03;5.15;;;2.92;;
73919;SDS011;62266;53.348;-1.496;2022-07-23T12:07:36;6.63;;;3.43;;
73919;SDS011;62266;53.348;-1.496;2022-07-23T12:10:08;5.93;;;2.97;;
73919;SDS011;62266;53.348;-1.496;2022-07-23T12:12:43;2.95;;;2.55;;
73919;SDS011;62266;53.348;-1.496;2022-07-23T12:15:11;5.07;;;2.60;;
73919;SDS011;62266;53.348;-1.496;2022-07-23T12:17:42;5.00;;;2.63;;
73919;SDS011;62266;53.348;-1.496;2022-07-23T12:20:12;6.47;;;2.53;;
73919;SDS011;62266;53.348;-1.496;2022-07-23T12:22:44;5.28;;;3.25;;
73919;SDS011;62266;53.348;-1.496;2022-07-23T12:25:15;4.30;;;2.97;;
73919;SDS011;62266;53.348;-1.496;2022-07-23T12:27:45;5.30;;;2.80;;
73919;SDS011;62266;53.348;-1.496;2022-07-23T12:30:21;5.75;;;2.72;;
73919;SDS011;62266;53.348;-1.496;2022-07-23T12:32:54;6.17;;;2.70;;
73919;SDS011;62266;53.348;-1.496;2022-07-23T12:35:21;3.90;;;2.45;;
73919;SDS011;62266;53.348;-1.496;2022-07-23T12:37:49;3.85;;;2.83;;
73919;SDS011;62266;53.348;-1.496;2022-07-23T12:42:49;3.38;;;2.67;;
73919;SDS011;62266;53.348;-1.496;2022-07-23T12:45:17;4.37;;;2.60;;
73919;SDS011;62266;53.348;-1.496;2022-07-23T12:47:52;5.90;;;3.03;;
73919;SDS011;62266;53.348;-1.496;2022-07-23T12:53:40;5.65;;;2.60;;
73919;SDS011;62266;53.348;-1.496;2022-07-23T12:56:10;3.83;;;2.50;;
73919;SDS011;62266;53.348;-1.496;2022-07-23T13:04:05;3.17;;;2.08;;
73919;SDS011;62266;53.348;-1.496;2022-07-23T13:06:34;2.05;;;1.85;;
73919;SDS011;62266;53.348;-1.496;2022-07-23T13:09:09;5.22;;;2.22;;
73919;SDS011;62266;53.348;-1.496;2022-07-23T13:11:38;3.87;;;1.97;;
73919;SDS011;62266;53.348;-1.496;2022-07-23T13:14:03;4.90;;;1.80;;
73919;SDS011;62266;53.348;-1.496;2022-07-23T13:16:30;3.25;;;1.75;;
73919;SDS011;62266;53.348;-1.496;2022-07-23T13:18:57;2.78;;;1.70;;
73919;SDS011;62266;53.348;-1.496;2022-07-23T13:21:23;2.92;;;1.70;;
73919;SDS011;62266;53.348;-1.496;2022-07-23T13:23:49;3.57;;;2.00;;
73919;SDS011;62266;53.348;-1.496;2022-07-23T13:26:15;2.75;;;1.70;;
73919;SDS011;62266;53.348;-1.496;2022-07-23T13:28:41;5.00;;;1.57;;
73919;SDS011;62266;53.348;-1.496;2022-07-23T13:31:06;5.00;;;1.90;;
73919;SDS011;62266;53.348;-1.496;2022-07-23T13:33:32;4.00;;;1.53;;
73919;SDS011;62266;53.348;-1.496;2022-07-23T13:35:58;7.65;;;2.00;;
73919;SDS011;62266;53.348;-1.496;2022-07-23T13:38:24;3.10;;;1.80;;
73919;SDS011;62266;53.348;-1.496;2022-07-23T13:40:50;2.53;;;1.80;;
73919;SDS011;62266;53.348;-1.496;2022-07-23T13:43:17;3.42;;;2.05;;
73919;SDS011;62266;53.348;-1.496;2022-07-23T13:45:44;4.32;;;2.28;;
73919;SDS011;62266;53.348;-1.496;2022-07-23T13:48:11;4.23;;;2.60;;
73919;SDS011;62266;53.348;-1.496;2022-07-23T13:50:37;7.25;;;3.10;;
73919;SDS011;62266;53.348;-1.496;2022-07-23T13:53:04;4.07;;;3.05;;
73919;SDS011;62266;53.348;-1.496;2022-07-23T13:55:31;3.38;;;2.90;;
73919;SDS011;62266;53.348;-1.496;2022-07-23T13:57:57;5.22;;;2.83;;
73919;SDS011;62266;53.348;-1.496;2022-07-23T14:00:24;3.97;;;2.90;;
73919;SDS011;62266;53.348;-1.496;2022-07-23T14:02:50;5.32;;;2.83;;
73919;SDS011;62266;53.348;-1.496;2022-07-23T14:05:16;3.42;;;3.13;;
73919;SDS011;62266;53.348;-1.496;2022-07-23T14:07:41;4.47;;;3.10;;
73919;SDS011;62266;53.348;-1.496;2022-07-23T14:10:09;3.90;;;3.22;;
73919;SDS011;62266;53.348;-1.496;2022-07-23T14:12:35;7.60;;;4.28;;
73919;SDS011;62266;53.348;-1.496;2022-07-23T14:15:01;4.80;;;3.87;;
73919;SDS011;62266;53.348;-1.496;2022-07-23T14:17:29;6.18;;;4.05;;
73919;SDS011;62266;53.348;-1.496;2022-07-23T14:19:55;4.38;;;3.00;;
73919;SDS011;62266;53.348;-1.496;2022-07-23T14:22:21;3.43;;;3.00;;
73919;SDS011;62266;53.348;-1.496;2022-07-23T14:24:47;3.80;;;3.10;;
73919;SDS011;62266;53.348;-1.496;2022-07-23T14:27:13;5.20;;;3.28;;
73919;SDS011;62266;53.348;-1.496;2022-07-23T14:29:38;4.80;;;4.05;;
73919;SDS011;62266;53.348;-1.496;2022-07-23T14:32:04;4.27;;;3.47;;
73919;SDS011;62266;53.348;-1.496;2022-07-23T14:34:30;3.72;;;3.30;;
73919;SDS011;62266;53.348;-1.496;2022-07-23T14:36:55;6.73;;;3.27;;
73919;SDS011;62266;53.348;-1.496;2022-07-23T14:39:21;5.30;;;3.30;;
73919;SDS011;62266;53.348;-1.496;2022-07-23T14:41:46;4.35;;;2.97;;
73919;SDS011;62266;53.348;-1.496;2022-07-23T14:44:12;6.27;;;3.53;;
73919;SDS011;62266;53.348;-1.496;2022-07-23T14:46:38;4.22;;;3.13;;
73919;SDS011;62266;53.348;-1.496;2022-07-23T14:49:04;4.55;;;3.30;;
73919;SDS011;62266;53.348;-1.496;2022-07-23T14:51:29;4.27;;;3.67;;
73919;SDS011;62266;53.348;-1.496;2022-07-23T14:53:55;3.83;;;3.33;;
73919;SDS011;62266;53.348;-1.496;2022-07-23T14:56:20;5.95;;;3.58;;
73919;SDS011;62266;53.348;-1.496;2022-07-23T14:58:46;3.60;;;3.30;;
73919;SDS011;62266;53.348;-1.496;2022-07-23T15:01:12;7.00;;;3.50;;
73919;SDS011;62266;53.348;-1.496;2022-07-23T15:03:37;3.90;;;3.40;;
73919;SDS011;62266;53.348;-1.496;2022-07-23T15:06:03;5.72;;;3.80;;
73919;SDS011;62266;53.348;-1.496;2022-07-23T15:08:29;4.23;;;3.10;;
73919;SDS011;62266;53.348;-1.496;2022-07-23T15:10:54;4.20;;;3.25;;
73919;SDS011;62266;53.348;-1.496;2022-07-23T15:13:20;4.70;;;3.30;;